createdAt,value
2023-02-11T00:00:24.719Z,20.00
2023-02-11T00:02:01.046Z,16.50
2023-02-11T00:03:35.750Z,13.80
2023-02-11T00:05:09.322Z,13.35
2023-02-11T00:06:42.503Z,12.35
2023-02-11T00:08:17.101Z,13.00
2023-02-11T00:09:50.234Z,13.65
2023-02-11T00:11:25.762Z,12.63
2023-02-11T00:12:58.868Z,14.80
2023-02-11T00:14:32.005Z,12.65
2023-02-11T00:16:09.298Z,11.20
2023-02-11T00:17:44.039Z,12.20
2023-02-11T00:19:17.185Z,13.45
2023-02-11T00:20:49.796Z,13.18
2023-02-11T00:22:23.077Z,11.18
2023-02-11T00:23:57.266Z,14.63
2023-02-11T00:25:30.412Z,13.52
2023-02-11T00:27:04.070Z,15.05
2023-02-11T00:28:37.484Z,17.30
2023-02-11T00:30:12.216Z,16.45
2023-02-11T00:31:45.495Z,13.85
2023-02-11T00:33:20.039Z,13.75
2023-02-11T00:34:55.320Z,10.65
2023-02-11T00:36:30.333Z,12.40
2023-02-11T00:38:03.433Z,12.45
2023-02-11T00:39:38.419Z,13.10
2023-02-11T00:41:11.700Z,13.73
2023-02-11T00:42:45.269Z,12.55
2023-02-11T00:44:18.446Z,13.32
2023-02-11T00:45:53.361Z,11.68
2023-02-11T00:47:26.778Z,12.32
2023-02-11T00:49:01.571Z,12.45
2023-02-11T00:50:34.707Z,12.35
2023-02-11T00:52:07.854Z,13.13
2023-02-11T00:53:40.396Z,11.80
2023-02-11T00:55:13.998Z,13.00
2023-02-11T00:56:46.153Z,11.18
2023-02-11T00:58:19.467Z,11.32
2023-02-11T00:59:52.646Z,12.90
2023-02-11T01:01:26.600Z,15.98
2023-02-11T01:02:59.786Z,13.98
2023-02-11T01:04:34.340Z,10.70
2023-02-11T01:06:08.507Z,13.10
2023-02-11T01:07:44.516Z,11.48
2023-02-11T01:09:17.762Z,11.75
2023-02-11T01:10:55.181Z,13.10
2023-02-11T01:12:28.305Z,14.23
2023-02-11T01:14:04.147Z,15.40
2023-02-11T01:15:37.346Z,14.07
2023-02-11T01:17:10.949Z,15.45
2023-02-11T01:18:44.483Z,17.45
2023-02-11T01:20:22.358Z,15.98
2023-02-11T01:21:55.700Z,15.32
2023-02-11T01:23:27.894Z,17.17
2023-02-11T01:25:02.379Z,14.05
2023-02-11T01:26:35.701Z,13.68
2023-02-11T01:28:12.539Z,13.38
2023-02-11T01:29:45.900Z,14.85
2023-02-11T01:31:19.727Z,12.35
2023-02-11T01:32:53.211Z,15.52
2023-02-11T01:34:26.278Z,15.40
2023-02-11T01:36:03.959Z,18.45
2023-02-11T01:37:37.899Z,19.80
2023-02-11T01:39:11.283Z,21.35
2023-02-11T01:40:48.250Z,23.13
2023-02-11T01:42:24.197Z,15.98
2023-02-11T01:43:57.383Z,14.07
2023-02-11T01:46:05.329Z,17.83
2023-02-11T01:47:38.526Z,17.77
2023-02-11T01:49:15.126Z,17.92
2023-02-11T01:50:52.200Z,17.70
2023-02-11T01:52:30.511Z,19.52
2023-02-11T01:54:22.492Z,16.10
2023-02-11T01:56:14.785Z,15.40
2023-02-11T01:57:53.589Z,13.77
2023-02-11T01:59:30.694Z,13.57
2023-02-11T02:01:05.916Z,17.45
2023-02-11T02:02:45.362Z,18.20
2023-02-11T02:04:21.056Z,16.35
2023-02-11T02:06:00.974Z,14.38
2023-02-11T02:07:43.030Z,15.65
2023-02-11T02:09:21.629Z,11.45
2023-02-11T02:10:56.658Z,13.05
2023-02-11T02:12:28.819Z,12.95
2023-02-11T02:14:02.752Z,13.10
2023-02-11T02:15:37.580Z,13.05
2023-02-11T02:17:23.764Z,14.77
2023-02-11T02:19:09.326Z,13.60
2023-02-11T02:21:09.197Z,14.88
2023-02-11T02:23:05.113Z,15.93
2023-02-11T02:25:01.085Z,13.15
2023-02-11T02:27:04.424Z,14.05
2023-02-11T02:29:08.963Z,9.38
2023-02-11T02:31:10.514Z,11.05
2023-02-11T02:33:21.619Z,11.35
2023-02-11T02:35:02.932Z,9.07
2023-02-11T02:36:42.619Z,9.75
2023-02-11T02:38:23.654Z,10.43
2023-02-11T02:39:57.864Z,10.00
2023-02-11T02:41:33.681Z,10.35
2023-02-11T02:43:10.313Z,11.18
2023-02-11T02:44:49.913Z,10.05
2023-02-11T02:46:24.662Z,10.68
2023-02-11T02:47:59.529Z,11.73
2023-02-11T02:49:32.745Z,14.23
2023-02-11T02:51:18.339Z,10.73
2023-02-11T02:53:01.846Z,12.02
2023-02-11T02:55:03.145Z,12.27
2023-02-11T02:56:46.340Z,12.38
2023-02-11T02:58:50.161Z,10.70
2023-02-11T03:00:29.828Z,20.20
2023-02-11T03:02:13.985Z,17.05
2023-02-11T03:03:55.157Z,14.90
2023-02-11T03:05:33.314Z,15.48
2023-02-11T03:07:17.407Z,10.02
2023-02-11T03:08:56.765Z,11.90
2023-02-11T03:10:32.856Z,11.73
2023-02-11T03:12:08.577Z,12.80
2023-02-11T03:13:43.428Z,13.00
2023-02-11T03:15:17.940Z,12.68
2023-02-11T03:16:53.431Z,12.95
2023-02-11T03:18:29.147Z,14.57
2023-02-11T03:20:05.966Z,14.35
2023-02-11T03:21:41.989Z,15.65
2023-02-11T03:23:20.069Z,15.70
2023-02-11T03:24:52.449Z,13.60
2023-02-11T03:26:31.619Z,17.20
2023-02-11T03:28:09.347Z,22.50
2023-02-11T03:29:49.424Z,29.83
2023-02-11T03:31:30.600Z,28.50
2023-02-11T03:33:09.881Z,58.30
2023-02-11T03:34:47.576Z,18.95
2023-02-11T03:36:27.951Z,16.05
2023-02-11T03:38:05.513Z,23.15
2023-02-11T03:39:41.374Z,13.38
2023-02-11T03:41:17.378Z,14.13
2023-02-11T03:42:54.573Z,18.23
2023-02-11T03:44:33.169Z,22.83
2023-02-11T03:46:07.342Z,15.02
2023-02-11T03:47:45.143Z,13.13
2023-02-11T03:49:21.969Z,14.43
2023-02-11T03:50:56.633Z,10.07
2023-02-11T03:52:31.852Z,97.68
2023-02-11T03:54:10.160Z,70.93
2023-02-11T03:55:45.268Z,29.20
2023-02-11T03:57:18.554Z,20.92
2023-02-11T03:58:51.129Z,15.48
2023-02-11T04:00:31.660Z,21.88
2023-02-11T04:02:04.948Z,28.05
2023-02-11T04:03:38.149Z,35.13
2023-02-11T04:05:17.425Z,14.10
2023-02-11T04:06:49.494Z,11.20
2023-02-11T04:08:24.204Z,10.82
2023-02-11T04:09:57.314Z,11.40
2023-02-11T04:11:30.621Z,12.20
2023-02-11T04:13:04.012Z,10.55
2023-02-11T04:14:37.449Z,9.73
2023-02-11T04:16:09.626Z,10.48
2023-02-11T04:17:43.073Z,11.40
2023-02-11T04:19:15.222Z,14.02
2023-02-11T04:20:49.134Z,14.05
2023-02-11T04:22:22.332Z,12.55
2023-02-11T04:23:57.301Z,9.23
2023-02-11T04:25:30.518Z,12.18
2023-02-11T04:27:04.102Z,10.30
2023-02-11T04:28:37.418Z,12.75
2023-02-11T04:30:10.463Z,10.60
2023-02-11T04:31:43.815Z,13.02
2023-02-11T04:33:17.518Z,13.90
2023-02-11T04:34:50.005Z,12.82
2023-02-11T04:36:23.259Z,14.63
2023-02-11T04:37:55.450Z,12.25
2023-02-11T04:39:30.194Z,13.95
2023-02-11T04:41:03.432Z,15.43
2023-02-11T04:42:36.612Z,11.73
2023-02-11T04:44:09.897Z,13.63
2023-02-11T04:45:42.537Z,13.88
2023-02-11T04:47:15.990Z,14.25
2023-02-11T04:48:48.268Z,15.07
2023-02-11T04:50:21.433Z,15.50
2023-02-11T04:51:54.776Z,14.48
2023-02-11T04:53:26.929Z,17.13
2023-02-11T04:55:01.460Z,12.60
2023-02-11T04:56:33.650Z,13.23
2023-02-11T04:58:07.042Z,16.63
2023-02-11T04:59:40.735Z,18.05
2023-02-11T05:01:15.061Z,20.40
2023-02-11T05:02:48.271Z,23.00
2023-02-11T05:04:21.478Z,15.70
2023-02-11T05:05:55.450Z,18.83
2023-02-11T05:07:28.621Z,18.23
2023-02-11T05:09:01.756Z,18.08
2023-02-11T05:10:35.955Z,13.18
2023-02-11T05:12:09.131Z,13.48
2023-02-11T05:13:41.448Z,14.13
2023-02-11T05:15:14.636Z,12.45
2023-02-11T05:16:48.200Z,14.32
2023-02-11T05:18:20.634Z,12.45
2023-02-11T05:19:53.884Z,13.07
2023-02-11T05:21:27.354Z,12.60
2023-02-11T05:23:00.644Z,14.85
2023-02-11T05:24:34.197Z,15.93
2023-02-11T05:26:09.352Z,14.02
2023-02-11T05:27:42.502Z,9.45
2023-02-11T05:29:15.707Z,13.07
2023-02-11T05:30:48.860Z,15.77
2023-02-11T05:32:22.565Z,14.65
2023-02-11T05:33:55.820Z,9.82
2023-02-11T05:35:28.475Z,12.45
2023-02-11T05:37:01.633Z,12.23
2023-02-11T05:38:33.862Z,10.85
2023-02-11T05:40:07.863Z,13.70
2023-02-11T05:41:42.472Z,10.70
2023-02-11T05:43:15.552Z,11.73
2023-02-11T05:44:50.633Z,11.98
2023-02-11T05:46:23.954Z,12.18
2023-02-11T05:47:57.278Z,11.93
2023-02-11T05:49:30.464Z,12.73
2023-02-11T05:51:08.534Z,15.70
2023-02-11T05:52:41.700Z,14.18
2023-02-11T05:54:15.650Z,16.08
2023-02-11T05:55:49.096Z,30.63
2023-02-11T05:57:24.017Z,36.22
2023-02-11T05:58:57.175Z,17.83
2023-02-11T06:00:30.474Z,31.73
2023-02-11T06:02:03.655Z,40.30
2023-02-11T06:03:36.955Z,43.25
2023-02-11T06:05:10.901Z,40.00
2023-02-11T06:06:44.279Z,40.75
2023-02-11T06:08:17.450Z,28.23
2023-02-11T06:09:50.774Z,17.25
2023-02-11T06:11:23.901Z,16.70
2023-02-11T06:12:58.541Z,12.95
2023-02-11T06:14:34.015Z,13.25
2023-02-11T06:16:07.748Z,13.18
2023-02-11T06:17:41.030Z,10.50
2023-02-11T06:19:14.661Z,10.18
2023-02-11T06:20:47.832Z,12.45
2023-02-11T06:22:21.278Z,12.40
2023-02-11T06:23:54.466Z,13.55
2023-02-11T06:25:28.000Z,15.85
2023-02-11T06:27:00.156Z,14.88
2023-02-11T06:28:36.078Z,12.60
2023-02-11T06:30:10.367Z,13.23
2023-02-11T06:31:43.873Z,16.10
2023-02-11T06:33:17.597Z,12.80
2023-02-11T06:34:50.757Z,20.00
2023-02-11T06:36:24.151Z,26.83
2023-02-11T06:37:57.465Z,29.20
2023-02-11T06:39:30.775Z,19.17
2023-02-11T06:41:04.391Z,18.77
2023-02-11T06:42:38.772Z,19.08
2023-02-11T06:44:13.530Z,22.65
2023-02-11T06:45:46.639Z,31.38
2023-02-11T06:47:20.038Z,14.70
2023-02-11T06:48:53.241Z,17.08
2023-02-11T06:50:26.458Z,16.08
2023-02-11T06:51:59.735Z,13.40
2023-02-11T06:53:32.975Z,15.00
2023-02-11T06:55:06.696Z,15.05
2023-02-11T06:56:41.380Z,21.23
2023-02-11T06:58:14.518Z,27.15
2023-02-11T06:59:48.141Z,26.88
2023-02-11T07:01:21.352Z,29.67
2023-02-11T07:02:54.774Z,43.00
2023-02-11T07:04:27.859Z,40.28
2023-02-11T07:06:01.173Z,46.45
2023-02-11T07:07:35.075Z,45.25
2023-02-11T07:09:08.841Z,43.22
2023-02-11T07:10:42.402Z,39.95
2023-02-11T07:12:15.661Z,47.13
2023-02-11T07:13:49.362Z,31.23
2023-02-11T07:15:24.096Z,26.77
2023-02-11T07:16:56.243Z,29.42
2023-02-11T07:18:29.454Z,30.33
2023-02-11T07:20:02.545Z,33.17
2023-02-11T07:21:36.039Z,38.05
2023-02-11T07:23:09.225Z,32.92
2023-02-11T07:24:42.755Z,38.17
2023-02-11T07:26:18.901Z,24.48
2023-02-11T07:27:52.206Z,21.98
2023-02-11T07:29:25.397Z,24.20
2023-02-11T07:30:58.921Z,29.35
2023-02-11T07:32:32.167Z,31.27
2023-02-11T07:34:05.598Z,32.05
2023-02-11T07:35:40.460Z,28.50
2023-02-11T07:37:15.530Z,27.58
2023-02-11T07:38:49.086Z,21.33
2023-02-11T07:40:22.437Z,28.13
2023-02-11T07:41:55.116Z,19.33
2023-02-11T07:43:29.552Z,18.08
2023-02-11T07:45:02.922Z,18.58
2023-02-11T07:46:37.809Z,18.10
2023-02-11T07:48:11.024Z,16.27
2023-02-11T07:49:44.305Z,17.25
2023-02-11T07:51:19.005Z,16.77
2023-02-11T07:52:52.510Z,15.40
2023-02-11T07:54:25.803Z,16.88
2023-02-11T07:55:59.250Z,19.98
2023-02-11T07:57:32.536Z,19.45
2023-02-11T07:59:05.957Z,19.98
2023-02-11T08:00:39.113Z,21.80
2023-02-11T08:02:13.936Z,21.85
2023-02-11T08:03:47.305Z,23.65
2023-02-11T08:05:20.561Z,22.30
2023-02-11T08:06:58.680Z,25.23
2023-02-11T08:08:32.278Z,23.45
2023-02-11T08:10:05.827Z,22.30
2023-02-11T08:11:39.147Z,20.15
2023-02-11T08:13:12.311Z,19.58
2023-02-11T08:14:45.573Z,21.30
2023-02-11T08:16:22.705Z,17.10
2023-02-11T08:17:57.415Z,18.48
2023-02-11T08:19:33.494Z,16.80
2023-02-11T08:21:09.784Z,18.63
2023-02-11T08:22:43.022Z,17.42
2023-02-11T08:24:16.457Z,19.35
2023-02-11T08:25:49.648Z,18.33
2023-02-11T08:27:23.215Z,19.33
2023-02-11T08:28:57.811Z,15.88
2023-02-11T08:30:31.670Z,15.73
2023-02-11T08:32:05.021Z,15.02
2023-02-11T08:33:40.428Z,15.60
2023-02-11T08:35:17.834Z,17.10
2023-02-11T08:36:51.297Z,17.40
2023-02-11T08:38:24.444Z,19.23
2023-02-11T08:39:57.710Z,18.38
2023-02-11T08:41:31.062Z,19.35
2023-02-11T08:43:06.301Z,19.55
2023-02-11T08:44:41.161Z,19.48
2023-02-11T08:46:17.113Z,18.13
2023-02-11T08:47:50.421Z,20.27
2023-02-11T08:49:25.129Z,16.88
2023-02-11T08:50:58.670Z,17.05
2023-02-11T08:52:31.789Z,16.25
2023-02-11T08:54:06.303Z,16.92
2023-02-11T08:55:39.434Z,15.48
2023-02-11T08:57:12.616Z,15.32
2023-02-11T08:58:45.913Z,15.05
2023-02-11T09:00:20.048Z,13.52
2023-02-11T09:01:53.365Z,13.43
2023-02-11T09:03:26.740Z,13.93
2023-02-11T09:05:01.460Z,14.98
2023-02-11T09:06:34.738Z,14.35
2023-02-11T09:08:07.927Z,12.25
2023-02-11T09:09:41.172Z,18.17
2023-02-11T09:11:15.156Z,17.42
2023-02-11T09:12:48.316Z,15.02
2023-02-11T09:14:23.498Z,15.25
2023-02-11T09:15:56.767Z,15.07
2023-02-11T09:17:30.025Z,16.10
2023-02-11T09:19:04.777Z,15.55
2023-02-11T09:20:39.450Z,14.18
2023-02-11T09:22:12.541Z,13.90
2023-02-11T09:23:48.044Z,13.40
2023-02-11T09:25:21.678Z,15.48
2023-02-11T09:26:55.009Z,15.18
2023-02-11T09:28:28.401Z,15.48
2023-02-11T09:30:01.757Z,16.98
2023-02-11T09:31:36.254Z,15.88
2023-02-11T09:33:09.585Z,15.63
2023-02-11T09:34:42.792Z,15.95
2023-02-11T09:36:19.725Z,17.33
2023-02-11T09:37:52.894Z,17.38
2023-02-11T09:39:26.779Z,17.33
2023-02-11T09:41:02.695Z,15.98
2023-02-11T09:42:45.316Z,16.88
2023-02-11T09:44:21.800Z,18.38
2023-02-11T09:45:57.068Z,19.63
2023-02-11T09:47:33.809Z,17.83
2023-02-11T09:49:08.897Z,16.77
2023-02-11T09:50:45.511Z,72.65
2023-02-11T09:52:29.789Z,29.33
2023-02-11T09:54:08.982Z,17.73
2023-02-11T09:55:44.942Z,18.17
2023-02-11T09:57:28.258Z,20.33
2023-02-11T09:59:01.992Z,17.63
2023-02-11T10:00:41.610Z,18.83
2023-02-11T10:02:22.089Z,14.65
2023-02-11T10:04:03.541Z,16.50
2023-02-11T10:05:47.787Z,17.35
2023-02-11T10:07:29.351Z,13.00
2023-02-11T10:09:09.662Z,18.67
2023-02-11T10:10:52.249Z,19.67
2023-02-11T10:12:50.887Z,13.50
2023-02-11T10:14:39.478Z,17.90
2023-02-11T10:16:28.097Z,17.38
2023-02-11T10:18:18.296Z,16.13
2023-02-11T10:20:04.290Z,15.27
2023-02-11T10:21:47.885Z,15.00
2023-02-11T10:23:26.188Z,15.93
2023-02-11T10:25:00.939Z,16.50
2023-02-11T10:26:36.817Z,16.25
2023-02-11T10:28:16.004Z,17.27
2023-02-11T10:29:52.977Z,16.08
2023-02-11T10:31:30.062Z,17.33
2023-02-11T10:33:08.415Z,17.02
2023-02-11T10:34:42.991Z,18.95
2023-02-11T10:36:19.032Z,17.63
2023-02-11T10:37:52.469Z,18.95
2023-02-11T10:39:28.912Z,20.45
2023-02-11T10:41:02.257Z,16.05
2023-02-11T10:42:36.977Z,13.90
2023-02-11T10:44:18.235Z,16.77
2023-02-11T10:45:55.248Z,16.90
2023-02-11T10:47:33.958Z,18.40
2023-02-11T10:49:07.335Z,18.00
2023-02-11T10:50:40.507Z,12.32
2023-02-11T10:52:16.156Z,28.58
2023-02-11T10:53:51.415Z,21.15
2023-02-11T10:55:29.233Z,16.40
2023-02-11T10:57:02.464Z,12.10
2023-02-11T10:58:42.945Z,14.48
2023-02-11T11:00:37.029Z,8.40
2023-02-11T11:02:24.736Z,8.30
2023-02-11T11:03:59.999Z,9.18
2023-02-11T11:05:35.823Z,8.98
2023-02-11T11:07:19.475Z,7.00
2023-02-11T11:08:53.228Z,7.75
2023-02-11T11:10:43.568Z,6.57
2023-02-11T11:12:42.161Z,11.25
2023-02-11T11:14:26.075Z,21.38
2023-02-11T11:16:27.157Z,17.33
2023-02-11T11:18:23.681Z,14.10
2023-02-11T11:20:16.373Z,11.38
2023-02-11T11:21:52.673Z,13.05
2023-02-11T11:23:27.045Z,11.52
2023-02-11T11:25:01.659Z,28.48
2023-02-11T11:26:44.387Z,16.90
2023-02-11T11:28:24.984Z,13.80
2023-02-11T11:29:59.105Z,13.75
2023-02-11T11:31:36.668Z,13.35
2023-02-11T11:33:21.659Z,20.17
2023-02-11T11:34:57.061Z,17.02
2023-02-11T11:36:37.349Z,22.13
2023-02-11T11:38:16.508Z,13.88
2023-02-11T11:39:58.221Z,28.33
2023-02-11T11:41:33.921Z,15.32
2023-02-11T11:43:23.113Z,14.68
2023-02-11T11:45:02.161Z,14.30
2023-02-11T11:46:38.654Z,14.68
2023-02-11T11:48:20.628Z,13.10
2023-02-11T11:50:18.992Z,13.48
2023-02-11T11:52:10.048Z,17.77
2023-02-11T11:53:49.764Z,9.98
2023-02-11T11:55:26.833Z,14.05
2023-02-11T11:57:04.511Z,12.82
2023-02-11T11:58:39.386Z,12.25
2023-02-11T12:00:19.022Z,10.32
2023-02-11T12:02:23.348Z,8.15
2023-02-11T12:04:34.610Z,8.50
2023-02-11T12:06:19.643Z,8.65
2023-02-11T12:08:04.982Z,8.05
2023-02-11T12:09:49.427Z,7.55
2023-02-11T12:11:32.218Z,10.07
2023-02-11T12:13:15.577Z,9.90
2023-02-11T12:15:01.012Z,9.07
2023-02-11T12:16:43.639Z,17.45
2023-02-11T12:18:33.259Z,12.32
2023-02-11T12:20:19.108Z,7.40
2023-02-11T12:22:02.242Z,14.30
2023-02-11T12:23:46.496Z,21.20
2023-02-11T12:25:28.618Z,5.18
2023-02-11T12:27:10.187Z,5.50
2023-02-11T12:28:54.438Z,5.05
2023-02-11T12:30:49.290Z,9.10
2023-02-11T12:32:29.301Z,6.05
2023-02-11T12:34:45.505Z,5.32
2023-02-11T12:36:40.133Z,4.97
2023-02-11T12:38:33.559Z,5.32
2023-02-11T12:40:19.256Z,4.68
2023-02-11T12:42:36.628Z,7.97
2023-02-11T12:44:21.944Z,5.57
2023-02-11T12:46:31.380Z,4.75
2023-02-11T12:48:22.811Z,9.50
2023-02-11T12:50:06.945Z,5.93
2023-02-11T12:51:59.357Z,5.22
2023-02-11T12:54:00.939Z,5.45
2023-02-11T12:55:38.163Z,6.25
2023-02-11T12:57:19.584Z,5.70
2023-02-11T12:58:56.817Z,19.80
2023-02-11T13:00:39.904Z,10.23
2023-02-11T13:02:22.991Z,6.57
2023-02-11T13:04:02.501Z,5.82
2023-02-11T13:05:41.719Z,5.28
2023-02-11T13:07:21.003Z,5.53
2023-02-11T13:09:03.959Z,6.78
2023-02-11T13:10:39.433Z,6.55
2023-02-11T13:12:32.744Z,4.68
2023-02-11T13:14:10.994Z,5.68
2023-02-11T13:15:46.986Z,8.07
2023-02-11T13:17:31.750Z,6.75
2023-02-11T13:19:15.627Z,7.15
2023-02-11T13:20:57.569Z,10.38
2023-02-11T13:22:36.125Z,11.95
2023-02-11T13:24:21.605Z,11.35
2023-02-11T13:26:03.627Z,24.45
2023-02-11T13:27:42.794Z,12.35
2023-02-11T13:29:25.801Z,11.00
2023-02-11T13:31:03.518Z,10.13
2023-02-11T13:33:19.563Z,9.63
2023-02-11T13:34:58.776Z,6.93
2023-02-11T13:36:35.228Z,5.13
2023-02-11T13:38:21.557Z,4.85
2023-02-11T13:40:00.553Z,6.57
2023-02-11T13:41:40.629Z,8.10
2023-02-11T13:43:23.308Z,6.82
2023-02-11T13:44:57.533Z,8.23
2023-02-11T13:46:49.312Z,10.98
2023-02-11T13:48:26.712Z,8.20
2023-02-11T13:50:01.885Z,8.50
2023-02-11T13:51:38.043Z,5.00
2023-02-11T13:53:11.405Z,5.60
2023-02-11T13:54:51.192Z,4.80
2023-02-11T13:56:30.454Z,7.80
2023-02-11T13:58:20.129Z,6.25
2023-02-11T13:59:55.639Z,5.28
2023-02-11T14:02:20.515Z,6.50
2023-02-11T14:04:39.934Z,9.10
2023-02-11T14:06:34.756Z,9.15
2023-02-11T14:08:33.478Z,8.48
2023-02-11T14:10:45.783Z,7.13
2023-02-11T14:12:32.466Z,20.42
2023-02-11T14:14:17.917Z,12.30
2023-02-11T14:16:06.115Z,7.55
2023-02-11T14:17:39.258Z,7.93
2023-02-11T14:19:31.774Z,7.75
2023-02-11T14:21:13.500Z,9.32
2023-02-11T14:22:50.882Z,8.90
2023-02-11T14:24:48.155Z,6.03
2023-02-11T14:26:37.782Z,4.88
2023-02-11T14:28:20.379Z,5.93
2023-02-11T14:30:10.256Z,5.32
2023-02-11T14:31:50.564Z,5.75
2023-02-11T14:33:53.348Z,5.82
2023-02-11T14:35:36.877Z,6.63
2023-02-11T14:37:23.850Z,11.85
2023-02-11T14:39:06.654Z,22.25
2023-02-11T14:40:51.583Z,10.48
2023-02-11T14:42:28.200Z,12.13
2023-02-11T14:44:05.958Z,8.38
2023-02-11T14:45:40.462Z,6.93
2023-02-11T14:47:23.307Z,14.27
2023-02-11T14:49:01.421Z,17.67
2023-02-11T14:50:45.429Z,16.42
2023-02-11T14:52:28.002Z,8.80
2023-02-11T14:54:13.001Z,10.70
2023-02-11T14:55:50.592Z,10.00
2023-02-11T14:57:23.880Z,12.95
2023-02-11T14:58:57.309Z,18.42
2023-02-11T15:00:31.069Z,13.95
2023-02-11T15:02:04.321Z,16.27
2023-02-11T15:03:39.857Z,19.63
2023-02-11T15:05:23.124Z,19.10
2023-02-11T15:07:01.409Z,13.40
2023-02-11T15:08:37.547Z,10.30
2023-02-11T15:10:19.738Z,13.20
2023-02-11T15:11:54.567Z,12.80
2023-02-11T15:13:32.077Z,13.80
2023-02-11T15:15:05.775Z,14.82
2023-02-11T15:16:44.021Z,15.57
2023-02-11T15:18:22.976Z,9.23
2023-02-11T15:20:01.170Z,11.13
2023-02-11T15:21:36.867Z,14.45
2023-02-11T15:23:21.173Z,12.48
2023-02-11T15:25:02.225Z,13.15
2023-02-11T15:26:35.556Z,20.00
2023-02-11T15:28:22.369Z,23.58
2023-02-11T15:29:55.598Z,18.35
2023-02-11T15:31:30.734Z,17.25
2023-02-11T15:33:06.918Z,15.98
2023-02-11T15:34:40.279Z,19.92
2023-02-11T15:36:14.855Z,18.42
2023-02-11T15:37:50.629Z,18.55
2023-02-11T15:39:35.677Z,20.77
2023-02-11T15:41:10.098Z,28.65
2023-02-11T15:42:56.248Z,29.38
2023-02-11T15:44:35.958Z,26.80
2023-02-11T15:46:11.781Z,24.92
2023-02-11T15:47:52.164Z,28.77
2023-02-11T15:49:26.515Z,37.65
2023-02-11T15:51:03.580Z,43.00
2023-02-11T15:52:37.010Z,44.13
2023-02-11T15:54:19.961Z,63.17
2023-02-11T15:56:04.045Z,38.17
2023-02-11T15:57:37.337Z,39.22
2023-02-11T15:59:15.605Z,50.33
2023-02-11T16:00:51.087Z,45.17
2023-02-11T16:02:32.814Z,44.10
2023-02-11T16:04:06.728Z,44.00
2023-02-11T16:05:40.701Z,44.72
2023-02-11T16:07:40.927Z,42.38
2023-02-11T16:09:26.337Z,45.92
2023-02-11T16:11:03.479Z,46.03
2023-02-11T16:12:37.087Z,48.60
2023-02-11T16:14:24.252Z,56.58
2023-02-11T16:16:00.954Z,60.42
2023-02-11T16:17:34.173Z,54.67
2023-02-11T16:19:07.418Z,61.35
2023-02-11T16:20:41.254Z,61.17
2023-02-11T16:22:19.135Z,74.10
2023-02-11T16:23:55.031Z,82.70
2023-02-11T16:25:28.153Z,62.38
2023-02-11T16:27:05.647Z,73.85
2023-02-11T16:28:38.995Z,72.38
2023-02-11T16:30:27.941Z,73.35
2023-02-11T16:32:09.935Z,55.33
2023-02-11T16:33:43.142Z,56.00
2023-02-11T16:35:16.306Z,57.95
2023-02-11T16:36:50.362Z,55.90
2023-02-11T16:38:26.501Z,58.50
2023-02-11T16:39:59.716Z,51.30
2023-02-11T16:41:32.959Z,55.15
2023-02-11T16:43:07.588Z,44.47
2023-02-11T16:44:41.406Z,49.05
2023-02-11T16:46:16.917Z,48.28
2023-02-11T16:47:50.240Z,46.92
2023-02-11T16:49:27.591Z,39.08
2023-02-11T16:51:01.202Z,33.80
2023-02-11T16:52:34.971Z,47.88
2023-02-11T16:54:08.243Z,54.40
2023-02-11T16:55:41.581Z,62.00
2023-02-11T16:57:16.494Z,61.40
2023-02-11T16:58:51.083Z,54.83
2023-02-11T17:00:25.069Z,61.10
2023-02-11T17:01:59.390Z,72.95
2023-02-11T17:03:37.874Z,70.13
2023-02-11T17:05:20.200Z,77.75
2023-02-11T17:06:53.428Z,78.20
2023-02-11T17:08:26.590Z,81.45
2023-02-11T17:10:00.777Z,73.45
2023-02-11T17:11:33.988Z,53.25
2023-02-11T17:13:07.475Z,83.63
2023-02-11T17:14:42.014Z,33.10
2023-02-11T17:16:20.601Z,24.85
2023-02-11T17:17:53.731Z,21.20
2023-02-11T17:19:26.934Z,21.20
2023-02-11T17:21:00.111Z,17.63
2023-02-11T17:22:33.646Z,18.00
2023-02-11T17:24:07.091Z,28.83
2023-02-11T17:25:40.790Z,15.40
2023-02-11T17:27:15.347Z,14.65
2023-02-11T17:28:48.928Z,14.82
2023-02-11T17:30:24.094Z,14.52
2023-02-11T17:31:57.330Z,23.25
2023-02-11T17:33:30.633Z,28.92
2023-02-11T17:35:06.141Z,30.10
2023-02-11T17:36:41.339Z,37.17
2023-02-11T17:38:14.484Z,39.65
2023-02-11T17:39:47.643Z,42.55
2023-02-11T17:41:21.214Z,41.53
2023-02-11T17:42:54.786Z,45.67
2023-02-11T17:44:27.960Z,41.28
2023-02-11T17:46:02.601Z,37.70
2023-02-11T17:47:36.369Z,54.25
2023-02-11T17:49:09.751Z,56.40
2023-02-11T17:50:42.979Z,61.53
2023-02-11T17:52:16.820Z,80.53
2023-02-11T17:53:50.091Z,48.13
2023-02-11T17:55:23.264Z,52.65
2023-02-11T17:56:58.303Z,63.15
2023-02-11T17:58:31.724Z,46.75
2023-02-11T18:00:05.974Z,55.30
2023-02-11T18:01:47.723Z,53.53
2023-02-11T18:03:20.950Z,50.80
2023-02-11T18:04:57.521Z,39.42
2023-02-11T18:06:31.027Z,21.30
2023-02-11T18:08:05.281Z,22.77
2023-02-11T18:09:39.443Z,27.70
2023-02-11T18:11:15.145Z,35.88
2023-02-11T18:12:48.606Z,47.95
2023-02-11T18:14:23.948Z,50.28
2023-02-11T18:16:02.669Z,56.88
2023-02-11T18:17:37.257Z,81.05
2023-02-11T18:19:12.789Z,46.70
2023-02-11T18:20:46.617Z,43.67
2023-02-11T18:22:20.945Z,34.85
2023-02-11T18:23:54.120Z,21.10
2023-02-11T18:25:27.869Z,23.33
2023-02-11T18:27:01.065Z,26.48
2023-02-11T18:28:34.285Z,23.52
2023-02-11T18:30:08.805Z,22.23
2023-02-11T18:31:42.202Z,28.75
2023-02-11T18:33:16.680Z,26.98
2023-02-11T18:34:49.940Z,19.50
2023-02-11T18:36:24.141Z,20.40
2023-02-11T18:37:57.867Z,18.45
2023-02-11T18:39:31.270Z,21.35
2023-02-11T18:41:04.552Z,18.58
2023-02-11T18:42:37.722Z,17.10
2023-02-11T18:44:12.011Z,14.98
2023-02-11T18:45:45.505Z,14.68
2023-02-11T18:47:18.833Z,14.82
2023-02-11T18:48:55.993Z,13.50
2023-02-11T18:50:29.503Z,17.80
2023-02-11T18:52:04.402Z,21.10
2023-02-11T18:53:38.045Z,30.80
2023-02-11T18:55:11.242Z,25.63
2023-02-11T18:56:44.551Z,16.83
2023-02-11T18:58:18.004Z,19.73
2023-02-11T18:59:51.705Z,20.20
2023-02-11T19:01:27.314Z,15.65
2023-02-11T19:03:02.967Z,14.43
2023-02-11T19:04:38.471Z,12.15
2023-02-11T19:06:16.208Z,13.40
2023-02-11T19:07:49.361Z,12.10
2023-02-11T19:09:22.830Z,13.57
2023-02-11T19:10:55.995Z,13.65
2023-02-11T19:12:29.212Z,12.57
2023-02-11T19:14:10.134Z,19.60
2023-02-11T19:15:44.556Z,12.57
2023-02-11T19:17:17.739Z,14.73
2023-02-11T19:18:50.870Z,24.67
2023-02-11T19:20:25.394Z,22.70
2023-02-11T19:22:04.661Z,24.77
2023-02-11T19:23:38.580Z,21.42
2023-02-11T19:25:14.858Z,27.45
2023-02-11T19:26:48.702Z,32.00
2023-02-11T19:28:22.291Z,15.13
2023-02-11T19:29:55.405Z,30.85
2023-02-11T19:31:28.612Z,27.13
2023-02-11T19:33:01.919Z,54.20
2023-02-11T19:34:41.175Z,47.45
2023-02-11T19:36:17.295Z,40.80
2023-02-11T19:37:50.472Z,40.47
2023-02-11T19:39:24.897Z,15.90
2023-02-11T19:40:58.459Z,23.30
2023-02-11T19:42:32.069Z,22.92
2023-02-11T19:44:09.583Z,25.92
2023-02-11T19:45:42.945Z,17.23
2023-02-11T19:47:16.252Z,18.58
2023-02-11T19:48:50.447Z,16.60
2023-02-11T19:50:24.128Z,12.90
2023-02-11T19:51:58.667Z,33.92
2023-02-11T19:53:34.405Z,32.30
2023-02-11T19:55:08.417Z,37.47
2023-02-11T19:56:41.636Z,17.95
2023-02-11T19:58:15.240Z,18.17
2023-02-11T19:59:48.563Z,19.58
2023-02-11T20:01:23.488Z,18.00
2023-02-11T20:02:56.682Z,15.95
2023-02-11T20:04:32.197Z,23.48
2023-02-11T20:06:07.344Z,26.45
2023-02-11T20:07:42.269Z,20.25
2023-02-11T20:09:16.492Z,22.90
2023-02-11T20:10:49.661Z,25.02
2023-02-11T20:12:23.127Z,36.53
2023-02-11T20:13:58.218Z,36.55
2023-02-11T20:15:31.426Z,42.40
2023-02-11T20:17:04.842Z,39.45
2023-02-11T20:18:38.238Z,26.23
2023-02-11T20:20:13.189Z,29.60
2023-02-11T20:21:48.267Z,24.10
2023-02-11T20:23:22.990Z,22.83
2023-02-11T20:24:56.161Z,23.08
2023-02-11T20:26:31.177Z,22.13
2023-02-11T20:28:04.814Z,19.13
2023-02-11T20:29:38.216Z,22.50
2023-02-11T20:31:15.386Z,23.20
2023-02-11T20:32:48.753Z,26.30
2023-02-11T20:34:22.294Z,22.70
2023-02-11T20:35:57.085Z,24.00
2023-02-11T20:37:30.665Z,26.05
2023-02-11T20:39:07.229Z,21.80
2023-02-11T20:40:40.609Z,24.98
2023-02-11T20:42:15.129Z,25.17
2023-02-11T20:43:52.145Z,24.98
2023-02-11T20:45:25.387Z,24.05
2023-02-11T20:46:58.642Z,20.92
2023-02-11T20:48:31.203Z,19.27
2023-02-11T20:50:04.658Z,20.13
2023-02-11T20:51:38.015Z,18.98
2023-02-11T20:53:11.470Z,25.60
2023-02-11T20:54:46.064Z,23.13
2023-02-11T20:56:20.478Z,20.27
2023-02-11T20:57:54.090Z,19.15